Time;durP1;ratioP1;P1;durP2;ratioP2;P2;SDS_P1;SDS_P2;PMS_P1;PMS_P2;Temp;Humidity;BMP_temperature;BMP_pressure;BME280_temperature;BME280_humidity;BME280_pressure;Samples;Min_cycle;Max_cycle;Signal;HPM_P1;HPM_P2
2021/01/21 00:00:26;;;;;;;3.27;2.20;;;;;;;1.71;79.43;99473.81;5036689;28;20196;-81
2021/01/21 00:02:52;;;;;;;4.10;2.10;;;;;;;1.75;79.78;99475.50;5024767;28;20376;-80
2021/01/21 00:05:18;;;;;;;3.17;2.10;;;;;;;1.74;79.30;99483.22;5013291;28;20222;-81
2021/01/21 00:07:45;;;;;;;3.97;1.80;;;;;;;1.73;79.50;99482.38;5035095;28;20251;-80
2021/01/21 00:10:11;;;;;;;4.50;2.03;;;;;;;1.78;79.11;99469.50;5030527;28;20484;-80
2021/01/21 00:12:37;;;;;;;3.33;2.00;;;;;;;1.77;79.49;99463.47;5035149;28;20200;-80
2021/01/21 00:15:04;;;;;;;4.00;1.93;;;;;;;1.83;79.48;99452.28;5034129;28;20265;-81
2021/01/21 00:17:29;;;;;;;3.63;2.00;;;;;;;1.93;79.63;99450.50;5036253;28;20245;-80
2021/01/21 00:19:55;;;;;;;3.00;1.90;;;;;;;2.02;79.42;99451.25;5036261;28;20672;-80
2021/01/21 00:22:21;;;;;;;2.57;1.67;;;;;;;2.13;79.40;99456.28;5035850;28;20196;-80
2021/01/21 00:24:48;;;;;;;2.40;1.70;;;;;;;2.24;79.05;99451.88;5036579;28;20204;-80
2021/01/21 00:27:14;;;;;;;2.57;1.63;;;;;;;2.46;78.47;99452.50;5026145;28;20309;-80
2021/01/21 00:29:39;;;;;;;3.90;1.90;;;;;;;2.70;77.30;99467.66;5029341;28;20204;-80
2021/01/21 00:32:06;;;;;;;2.53;1.53;;;;;;;2.79;77.08;99460.66;5012308;28;20564;-79
2021/01/21 00:34:31;;;;;;;2.87;1.43;;;;;;;2.85;76.75;99457.16;5030126;28;20243;-79
2021/01/21 00:36:57;;;;;;;3.37;1.70;;;;;;;3.00;76.33;99456.09;5025001;28;20213;-79
2021/01/21 00:39:23;;;;;;;3.53;1.83;;;;;;;3.01;76.02;99455.22;5028460;28;20238;-79
2021/01/21 00:41:50;;;;;;;2.60;1.70;;;;;;;3.02;75.71;99460.34;5025879;28;20290;-80
2021/01/21 00:44:16;;;;;;;2.87;1.93;;;;;;;3.12;75.82;99457.66;5004763;28;20500;-79
2021/01/21 00:46:42;;;;;;;4.53;2.10;;;;;;;3.21;75.24;99454.94;5025727;28;20212;-79
2021/01/21 00:49:07;;;;;;;3.80;1.87;;;;;;;3.26;74.49;99449.72;5027440;28;20200;-80
2021/01/21 00:51:33;;;;;;;2.83;1.63;;;;;;;3.27;75.42;99447.09;5009200;28;20246;-81
2021/01/21 00:53:59;;;;;;;4.43;2.27;;;;;;;3.38;74.40;99449.53;5008265;28;20278;-80
2021/01/21 00:56:25;;;;;;;4.17;2.20;;;;;;;3.46;74.14;99441.69;5029281;28;20233;-79
2021/01/21 00:58:52;;;;;;;4.73;2.20;;;;;;;3.53;74.13;99445.84;5025504;28;20238;-79
2021/01/21 01:01:18;;;;;;;2.77;1.73;;;;;;;3.57;74.05;99439.75;5003599;28;20207;-81
2021/01/21 01:03:44;;;;;;;3.20;2.23;;;;;;;3.56;73.87;99451.81;5010642;28;20212;-80
2021/01/21 01:06:10;;;;;;;3.93;2.13;;;;;;;3.62;73.61;99445.69;5012073;28;20192;-81
2021/01/21 01:08:36;;;;;;;3.87;1.90;;;;;;;3.73;72.85;99450.66;5008767;28;20761;-80
2021/01/21 01:11:03;;;;;;;5.43;2.40;;;;;;;3.77;72.64;99449.75;5028335;28;20431;-81
2021/01/21 01:13:32;;;;;;;4.80;2.57;;;;;;;3.78;72.46;99442.00;5009878;28;20726;-79
2021/01/21 01:16:06;;;;;;;4.90;2.37;;;;;;;3.80;72.74;99436.81;5007575;28;20239;-80
2021/01/21 01:18:39;;;;;;;2.53;2.27;;;;;;;3.82;72.15;99439.34;5030773;28;20223;-80
2021/01/21 01:21:06;;;;;;;5.20;2.03;;;;;;;3.84;71.95;99441.03;5009505;28;20200;-79
2021/01/21 01:23:34;;;;;;;4.03;2.00;;;;;;;3.74;72.46;99439.50;5035158;28;20215;-79
2021/01/21 01:26:00;;;;;;;4.83;2.13;;;;;;;3.73;72.37;99430.03;5025861;28;20212;-79
2021/01/21 01:28:26;;;;;;;4.37;2.37;;;;;;;3.72;72.39;99433.53;5032036;28;20220;-79
2021/01/21 01:30:53;;;;;;;4.77;2.60;;;;;;;3.70;72.67;99424.97;5027186;28;20661;-79
2021/01/21 01:33:22;;;;;;;4.67;2.37;;;;;;;3.69;72.32;99431.81;5011031;28;20298;-80
2021/01/21 01:35:48;;;;;;;3.10;2.10;;;;;;;3.69;72.17;99431.81;5010115;28;20266;-80
2021/01/21 01:38:15;;;;;;;4.67;2.40;;;;;;;3.68;71.73;99427.56;5011356;28;20223;-79
2021/01/21 01:40:41;;;;;;;4.33;2.40;;;;;;;3.67;72.18;99418.13;5026192;28;20195;-80
2021/01/21 01:43:11;;;;;;;3.47;2.53;;;;;;;3.70;71.96;99412.06;5004894;28;20197;-79
2021/01/21 01:45:37;;;;;;;3.70;2.37;;;;;;;3.69;71.75;99420.69;5004289;28;20212;-79
2021/01/21 01:48:04;;;;;;;5.97;2.37;;;;;;;3.61;72.58;99420.81;5007270;28;20247;-79
2021/01/21 01:50:42;;;;;;;5.37;2.60;;;;;;;3.51;72.94;99411.53;5008666;28;20212;-80
2021/01/21 01:53:09;;;;;;;5.47;2.43;;;;;;;3.44;73.11;99415.09;5025520;28;20227;-80
2021/01/21 01:55:40;;;;;;;4.90;2.03;;;;;;;3.42;73.54;99412.53;5011712;28;20299;-80
2021/01/21 01:58:24;;;;;;;3.57;2.10;;;;;;;3.41;73.51;99403.97;5007696;28;20310;-80
2021/01/21 02:01:00;;;;;;;2.37;2.10;;;;;;;3.41;73.65;99395.34;5031497;28;20214;-80
2021/01/21 02:03:25;;;;;;;3.57;2.10;;;;;;;3.38;73.92;99395.44;5024659;28;20681;-80
2021/01/21 02:06:25;;;;;;;3.77;2.07;;;;;;;3.38;73.37;99385.97;4999167;28;20299;-79
2021/01/21 02:08:52;;;;;;;3.87;2.40;;;;;;;3.39;73.33;99391.97;5023507;28;20471;-79
2021/01/21 02:11:36;;;;;;;3.00;1.93;;;;;;;3.41;72.90;99388.50;5014969;28;21632;-79
2021/01/21 02:14:07;;;;;;;4.37;2.40;;;;;;;3.36;73.55;99390.28;5008574;28;20326;-79
2021/01/21 02:16:47;;;;;;;4.87;2.40;;;;;;;3.39;73.35;99389.38;5042195;28;20278;-82
2021/01/21 02:19:57;;;;;;;4.53;2.53;;;;;;;3.38;72.72;99391.13;5033168;28;20291;-81
2021/01/21 02:23:09;;;;;;;3.87;2.13;;;;;;;3.35;73.36;99388.59;5026467;28;20240;-80
2021/01/21 02:25:43;;;;;;;4.07;2.20;;;;;;;3.42;73.00;99384.19;5014466;28;20235;-80
2021/01/21 02:29:00;;;;;;;4.43;2.23;;;;;;;3.40;73.43;99389.38;5036923;28;20356;-79
2021/01/21 02:31:30;;;;;;;5.00;2.27;;;;;;;3.38;73.43;99383.38;4966541;28;20229;-79
2021/01/21 02:34:06;;;;;;;4.43;2.33;;;;;;;3.36;73.34;99382.56;4953123;28;20272;-80
2021/01/21 02:36:39;;;;;;;5.10;2.30;;;;;;;3.35;73.70;99383.44;4977184;28;20242;-80
2021/01/21 02:39:13;;;;;;;3.60;2.30;;;;;;;3.38;72.98;99382.56;5010299;28;20622;-80
2021/01/21 02:41:43;;;;;;;3.23;2.17;;;;;;;3.35;73.54;99373.13;5023594;28;20765;-79
2021/01/21 02:44:09;;;;;;;4.43;2.40;;;;;;;3.36;73.54;99374.84;5001283;28;20208;-80
2021/01/21 02:46:37;;;;;;;5.63;2.50;;;;;;;3.40;73.08;99371.31;5024682;28;20208;-80
2021/01/21 02:49:05;;;;;;;5.57;2.47;;;;;;;3.38;73.19;99370.50;5036002;28;20215;-80
2021/01/21 02:51:37;;;;;;;4.27;2.53;;;;;;;3.38;72.93;99367.94;5030406;28;20326;-80
2021/01/21 02:54:22;;;;;;;4.47;2.90;;;;;;;3.39;73.33;99363.63;5018213;28;20270;-80
2021/01/21 02:56:52;;;;;;;3.93;2.70;;;;;;;3.53;72.66;99360.81;5008032;28;20711;-81
2021/01/21 02:59:20;;;;;;;4.17;2.57;;;;;;;3.53;72.52;99368.53;5032618;28;20279;-81
2021/01/21 03:01:50;;;;;;;3.93;2.80;;;;;;;3.63;72.83;99351.19;5012705;28;20222;-80
2021/01/21 03:04:24;;;;;;;4.93;2.40;;;;;;;3.69;71.77;99364.78;5013653;28;20224;-80
2021/01/21 03:06:55;;;;;;;6.17;2.90;;;;;;;3.68;72.28;99362.28;5031659;28;20714;-81
2021/01/21 03:09:43;;;;;;;2.93;2.20;;;;;;;3.75;71.87;99366.44;5020825;28;20199;-80
2021/01/21 03:12:20;;;;;;;6.20;3.27;;;;;;;3.73;72.16;99361.31;5029398;28;20228;-80
2021/01/21 03:14:48;;;;;;;4.93;2.97;;;;;;;3.75;72.12;99372.44;5032223;28;20224;-82
2021/01/21 03:17:17;;;;;;;4.70;2.77;;;;;;;3.71;72.31;99370.81;5013619;28;20259;-80
2021/01/21 03:19:52;;;;;;;4.30;2.70;;;;;;;3.74;71.67;99360.41;5005846;28;20302;-80
2021/01/21 03:22:19;;;;;;;7.10;2.90;;;;;;;3.76;71.98;99360.38;5017950;28;20264;-80
2021/01/21 03:24:45;;;;;;;5.13;2.97;;;;;;;3.76;72.00;99363.84;5010893;28;20199;-81
2021/01/21 03:27:17;;;;;;;6.30;2.93;;;;;;;3.75;72.01;99351.81;5014313;28;20769;-80
2021/01/21 03:29:43;;;;;;;4.60;2.87;;;;;;;3.81;72.04;99352.56;5012372;28;20246;-81
2021/01/21 03:32:15;;;;;;;4.30;2.70;;;;;;;3.84;71.20;99352.53;5015745;28;20206;-81
2021/01/21 03:34:52;;;;;;;5.00;2.70;;;;;;;3.77;72.08;99351.78;5013977;28;20223;-80
2021/01/21 03:37:18;;;;;;;4.97;2.97;;;;;;;3.77;71.55;99347.47;5031883;28;20219;-81
2021/01/21 03:39:47;;;;;;;5.83;2.80;;;;;;;3.74;72.04;99350.09;5014484;28;20302;-82
2021/01/21 03:42:29;;;;;;;5.87;2.73;;;;;;;3.70;72.04;99345.88;5016477;28;20199;-80
2021/01/21 03:45:14;;;;;;;4.37;2.47;;;;;;;3.59;72.05;99347.81;5028289;28;20261;-80
2021/01/21 03:47:40;;;;;;;4.03;2.60;;;;;;;3.48;72.83;99350.56;5016668;28;20700;-80
2021/01/21 03:50:08;;;;;;;4.27;2.60;;;;;;;3.41;73.17;99352.44;5016233;28;20200;-81
2021/01/21 03:52:37;;;;;;;7.23;3.03;;;;;;;3.28;73.48;99355.22;5007571;28;20267;-80
2021/01/21 03:55:10;;;;;;;5.87;3.17;;;;;;;3.18;74.24;99351.94;5011300;28;20313;-81
2021/01/21 03:57:35;;;;;;;4.63;3.00;;;;;;;3.14;74.32;99350.31;5033900;28;20964;-80
2021/01/21 04:00:17;;;;;;;4.20;2.70;;;;;;;3.16;74.10;99345.97;5013656;28;20234;-80
2021/01/21 04:02:47;;;;;;;4.50;2.90;;;;;;;3.16;74.57;99351.13;5017014;28;20234;-80
2021/01/21 04:05:39;;;;;;;5.50;3.20;;;;;;;3.20;74.65;99353.63;5010621;28;20201;-81
2021/01/21 04:08:05;;;;;;;5.90;3.17;;;;;;;3.20;74.86;99345.91;5017902;28;20315;-80
2021/01/21 04:10:40;;;;;;;6.07;3.27;;;;;;;3.20;74.52;99339.88;5013973;28;20218;-81
2021/01/21 04:13:13;;;;;;;7.80;3.40;;;;;;;3.17;74.83;99337.38;5013442;28;20249;-81
2021/01/21 04:15:38;;;;;;;4.37;2.67;;;;;;;3.25;74.40;99347.53;5012809;28;20204;-80
2021/01/21 04:18:05;;;;;;;5.07;3.23;;;;;;;3.21;74.79;99339.03;5012053;28;20224;-81
2021/01/21 04:20:52;;;;;;;7.90;3.40;;;;;;;3.25;75.01;99334.66;5031684;28;20235;-79
2021/01/21 04:23:18;;;;;;;5.57;3.53;;;;;;;3.22;75.32;99327.84;5011172;28;20644;-80
2021/01/21 04:25:45;;;;;;;6.27;3.70;;;;;;;3.19;75.29;99327.91;5035339;28;20201;-80
2021/01/21 04:28:11;;;;;;;5.23;2.87;;;;;;;3.14;75.67;99315.09;5029882;28;20306;-80
2021/01/21 04:30:40;;;;;;;5.50;3.20;;;;;;;3.11;75.89;99325.44;5019505;28;20203;-79
2021/01/21 04:33:06;;;;;;;6.10;3.60;;;;;;;3.10;75.56;99325.47;5016479;28;20369;-80
2021/01/21 04:35:33;;;;;;;6.60;3.80;;;;;;;3.10;76.37;99320.34;5015723;28;20244;-82
2021/01/21 04:38:00;;;;;;;6.53;3.83;;;;;;;3.11;75.83;99319.44;5010795;28;20224;-80
2021/01/21 04:40:37;;;;;;;5.77;3.67;;;;;;;3.05;76.13;99310.09;5030272;28;20272;-80
2021/01/21 04:43:29;;;;;;;7.33;3.80;;;;;;;3.05;76.45;99314.41;5032809;28;20215;-80
2021/01/21 04:46:04;;;;;;;8.97;4.03;;;;;;;3.10;76.01;99308.28;5017275;28;20499;-81
2021/01/21 04:48:30;;;;;;;6.93;4.07;;;;;;;3.10;76.18;99297.16;5014617;28;20227;-81
2021/01/21 04:51:09;;;;;;;6.00;3.63;;;;;;;3.10;76.16;99287.69;5017238;28;20203;-80
2021/01/21 04:53:47;;;;;;;6.97;4.10;;;;;;;3.11;76.28;99280.81;5012596;28;20487;-81
2021/01/21 04:56:24;;;;;;;7.10;4.23;;;;;;;3.11;76.38;99279.06;5019018;28;20204;-81
2021/01/21 04:59:27;;;;;;;5.83;3.97;;;;;;;3.15;76.32;99290.16;5018644;28;20239;-80
2021/01/21 05:01:53;;;;;;;7.17;3.93;;;;;;;3.26;75.84;99274.56;5016524;28;20690;-81
2021/01/21 05:04:20;;;;;;;7.73;4.40;;;;;;;3.24;75.83;99269.41;5017772;28;20200;-80
2021/01/21 05:06:51;;;;;;;8.40;4.33;;;;;;;3.31;75.82;99270.16;5016272;28;20462;-80
2021/01/21 05:09:20;;;;;;;7.27;4.17;;;;;;;3.33;75.85;99273.56;5034462;28;20212;-81
2021/01/21 05:11:47;;;;;;;8.67;4.80;;;;;;;3.34;75.47;99268.38;5027663;28;20219;-80
2021/01/21 05:14:28;;;;;;;6.13;3.80;;;;;;;3.39;75.25;99264.00;5028116;28;20251;-80
2021/01/21 05:17:23;;;;;;;7.20;4.50;;;;;;;3.39;76.27;99255.41;5034289;28;20219;-81
2021/01/21 05:19:51;;;;;;;8.70;4.60;;;;;;;3.44;75.46;99269.03;5030809;28;20210;-82
2021/01/21 05:22:37;;;;;;;6.07;3.90;;;;;;;3.45;75.95;99267.31;5035908;28;20215;-80
2021/01/21 05:25:11;;;;;;;8.93;3.87;;;;;;;3.34;76.02;99264.94;5035908;28;20620;-80
2021/01/21 05:27:50;;;;;;;7.40;4.87;;;;;;;3.30;76.33;99251.25;5033520;28;20224;-80
2021/01/21 05:30:41;;;;;;;7.67;4.30;;;;;;;3.28;76.51;99257.34;5016976;28;20243;-82
2021/01/21 05:33:07;;;;;;;6.90;4.43;;;;;;;3.27;76.32;99255.63;5031392;28;20203;-81
2021/01/21 05:35:50;;;;;;;6.97;4.00;;;;;;;3.26;76.70;99261.66;5020140;28;20219;-81
2021/01/21 05:38:16;;;;;;;10.27;3.87;;;;;;;3.23;76.22;99259.97;5030673;28;20607;-80
2021/01/21 05:41:14;;;;;;;5.60;4.10;;;;;;;3.21;76.02;99257.44;5035430;28;20200;-80
2021/01/21 05:43:57;;;;;;;6.03;4.47;;;;;;;3.23;75.94;99273.69;5016176;28;20196;-80
2021/01/21 05:46:31;;;;;;;7.50;4.07;;;;;;;3.27;75.85;99278.81;5037488;28;20208;-81
2021/01/21 05:48:58;;;;;;;8.30;4.67;;;;;;;3.27;75.66;99266.75;5023119;28;20200;-80
2021/01/21 05:51:29;;;;;;;5.70;3.80;;;;;;;3.26;75.80;99266.81;5024134;28;20209;-82
2021/01/21 05:53:58;;;;;;;6.73;4.33;;;;;;;3.30;75.34;99268.47;5024795;28;20243;-79
2021/01/21 05:56:43;;;;;;;6.57;4.00;;;;;;;3.28;75.54;99259.91;5046089;28;20207;-82
2021/01/21 05:59:16;;;;;;;6.80;3.80;;;;;;;3.25;75.55;99255.66;5027550;28;20291;-82
2021/01/21 06:01:48;;;;;;;6.53;4.10;;;;;;;3.32;74.95;99266.69;5036719;28;20218;-80
2021/01/21 06:04:19;;;;;;;6.30;3.77;;;;;;;3.38;74.45;99271.75;5011172;28;20200;-80
2021/01/21 06:06:45;;;;;;;6.90;4.40;;;;;;;3.37;74.97;99270.03;5033306;28;20220;-81
2021/01/21 06:09:15;;;;;;;8.03;4.47;;;;;;;3.35;74.47;99252.03;5025387;28;20201;-80
2021/01/21 06:11:43;;;;;;;7.53;4.03;;;;;;;3.47;73.81;99263.84;5033848;28;20230;-81
2021/01/21 06:14:10;;;;;;;7.07;4.23;;;;;;;3.46;73.94;99266.44;5031075;28;20727;-80
2021/01/21 06:16:37;;;;;;;6.87;4.03;;;;;;;3.41;73.91;99274.25;5031555;28;20200;-82
2021/01/21 06:19:03;;;;;;;8.60;4.40;;;;;;;3.41;74.04;99267.38;5033867;28;20195;-80
2021/01/21 06:21:47;;;;;;;7.20;3.80;;;;;;;3.42;73.45;99276.81;5006964;28;20227;-81
2021/01/21 06:24:29;;;;;;;7.53;4.27;;;;;;;3.48;73.81;99278.41;5011607;28;20207;-81
2021/01/21 06:27:02;;;;;;;6.80;3.67;;;;;;;3.49;73.31;99297.31;5014233;28;20262;-81
2021/01/21 06:29:29;;;;;;;7.23;4.10;;;;;;;3.47;73.74;99293.94;5028155;28;20215;-82
2021/01/21 06:32:01;;;;;;;6.43;3.83;;;;;;;3.42;73.97;99294.84;5031231;28;20578;-80
2021/01/21 06:34:31;;;;;;;9.07;4.67;;;;;;;3.41;73.96;99280.28;5031834;28;20243;-80
2021/01/21 06:37:03;;;;;;;6.43;4.23;;;;;;;3.39;74.10;99269.16;5005129;28;20739;-80
2021/01/21 06:39:33;;;;;;;6.93;4.60;;;;;;;3.38;74.38;99282.06;5012697;28;20197;-80
2021/01/21 06:42:02;;;;;;;9.60;5.37;;;;;;;3.42;74.09;99287.09;5028971;28;20688;-80
2021/01/21 06:44:28;;;;;;;8.27;5.17;;;;;;;3.46;73.58;99285.31;5030872;28;20424;-80
2021/01/21 06:46:54;;;;;;;7.90;4.80;;;;;;;3.45;74.07;99286.22;5012614;28;20442;-81
2021/01/21 06:49:21;;;;;;;8.17;4.53;;;;;;;3.46;74.02;99269.88;5003943;28;20200;-80
2021/01/21 06:51:49;;;;;;;8.57;5.80;;;;;;;3.47;74.05;99288.78;5020909;28;20323;-80
2021/01/21 06:54:16;;;;;;;16.17;8.93;;;;;;;3.47;74.43;99276.72;5028195;28;20783;-81
2021/01/21 06:56:42;;;;;;;12.20;6.50;;;;;;;3.50;73.82;99280.97;5029522;28;20270;-81
2021/01/21 06:59:09;;;;;;;17.70;11.10;;;;;;;3.50;74.26;99281.84;5021652;28;20203;-81
2021/01/21 07:01:49;;;;;;;8.53;6.13;;;;;;;3.51;74.25;99273.22;5025204;28;20207;-82
2021/01/21 07:04:22;;;;;;;11.50;7.10;;;;;;;3.49;74.27;99285.28;5027055;28;20200;-81
2021/01/21 07:07:12;;;;;;;10.23;6.40;;;;;;;3.49;74.37;99282.69;5031762;28;20306;-80
2021/01/21 07:09:40;;;;;;;8.20;5.47;;;;;;;3.49;74.06;99272.38;5027800;28;20219;-80
2021/01/21 07:12:14;;;;;;;7.97;5.20;;;;;;;3.51;74.05;99265.47;5040866;28;20286;-80
2021/01/21 07:14:41;;;;;;;7.70;5.37;;;;;;;3.51;73.95;99255.16;5031374;28;20580;-83
2021/01/21 07:17:07;;;;;;;8.63;5.13;;;;;;;3.53;74.33;99263.72;5032103;28;20226;-81
2021/01/21 07:19:34;;;;;;;12.27;5.87;;;;;;;3.52;73.89;99266.34;5024594;28;20207;-82
2021/01/21 07:22:11;;;;;;;9.13;5.37;;;;;;;3.53;74.01;99262.88;5032412;28;20202;-81
2021/01/21 07:24:55;;;;;;;9.93;6.30;;;;;;;3.50;74.76;99265.50;5029114;28;20218;-80
2021/01/21 07:27:21;;;;;;;8.70;5.50;;;;;;;3.51;74.58;99251.75;5031012;28;21006;-80
2021/01/21 07:29:49;;;;;;;8.90;5.57;;;;;;;3.50;74.59;99248.34;5030259;28;20203;-80
2021/01/21 07:32:15;;;;;;;9.70;5.40;;;;;;;3.50;74.96;99250.91;5029973;28;20660;-80
2021/01/21 07:34:46;;;;;;;10.27;5.83;;;;;;;3.51;74.89;99246.59;5030508;28;20219;-80
2021/01/21 07:37:22;;;;;;;11.17;6.30;;;;;;;3.52;74.59;99228.53;5032777;28;20314;-80
2021/01/21 07:40:03;;;;;;;10.07;6.37;;;;;;;3.49;75.23;99248.34;5022346;28;20301;-80
2021/01/21 07:42:49;;;;;;;16.13;9.63;;;;;;;3.48;75.12;99233.75;5031042;28;20207;-81
2021/01/21 07:45:29;;;;;;;18.70;9.77;;;;;;;3.48;75.32;99228.59;5030279;28;20196;-81
2021/01/21 07:47:56;;;;;;;11.73;6.83;;;;;;;3.52;74.98;99222.53;5029268;28;20306;-81
2021/01/21 07:50:30;;;;;;;9.73;6.10;;;;;;;3.51;75.13;99211.34;5034150;28;20210;-81
2021/01/21 07:52:58;;;;;;;9.43;5.87;;;;;;;3.51;75.21;99224.25;5020547;28;20200;-80
2021/01/21 07:55:27;;;;;;;11.63;6.67;;;;;;;3.52;74.65;99225.94;5032316;28;20222;-81
2021/01/21 07:57:54;;;;;;;10.07;5.43;;;;;;;3.58;74.73;99230.97;5032296;28;20228;-81
2021/01/21 08:00:21;;;;;;;10.60;5.57;;;;;;;3.56;74.81;99219.84;5032199;28;20203;-81
2021/01/21 08:02:49;;;;;;;13.03;5.93;;;;;;;3.58;75.04;99206.94;5030536;28;20196;-81
2021/01/21 08:05:16;;;;;;;9.70;5.87;;;;;;;3.62;74.97;99207.72;5035075;28;20214;-81
2021/01/21 08:07:49;;;;;;;9.20;5.60;;;;;;;3.66;74.84;99217.94;5031711;28;20277;-81
2021/01/21 08:10:18;;;;;;;8.70;5.23;;;;;;;3.68;74.89;99218.75;5034239;28;20415;-81
2021/01/21 08:12:50;;;;;;;11.73;5.57;;;;;;;3.67;74.73;99211.91;5020756;28;20208;-81
2021/01/21 08:15:17;;;;;;;11.43;5.67;;;;;;;3.73;74.39;99208.34;5037654;28;20215;-82
2021/01/21 08:17:45;;;;;;;10.47;6.30;;;;;;;3.75;74.37;99209.19;5035735;28;20232;-80
2021/01/21 08:20:12;;;;;;;10.00;6.23;;;;;;;3.80;74.48;99220.25;5037050;28;20265;-80
2021/01/21 08:22:54;;;;;;;10.37;5.90;;;;;;;3.85;74.32;99214.97;5030146;28;20213;-81
2021/01/21 08:25:21;;;;;;;8.43;5.30;;;;;;;3.93;73.75;99228.56;5035662;28;20862;-81
2021/01/21 08:27:48;;;;;;;11.03;6.83;;;;;;;3.94;74.27;99213.06;5035063;28;20226;-81
2021/01/21 08:30:20;;;;;;;9.90;6.03;;;;;;;3.93;74.61;99223.41;5037779;28;20195;-81
2021/01/21 08:32:50;;;;;;;10.90;6.57;;;;;;;3.93;73.97;99215.66;5029399;28;20200;-81
2021/01/21 08:35:20;;;;;;;10.23;5.97;;;;;;;4.03;73.43;99226.63;5035349;28;20241;-81
2021/01/21 08:37:49;;;;;;;8.33;5.23;;;;;;;4.14;72.87;99229.81;5040384;28;20235;-82
2021/01/21 08:40:16;;;;;;;8.23;5.23;;;;;;;4.16;73.08;99223.75;5019609;28;20211;-81
2021/01/21 08:42:44;;;;;;;9.03;5.53;;;;;;;4.18;72.93;99223.72;5041766;28;20261;-81
2021/01/21 08:45:11;;;;;;;8.43;5.47;;;;;;;4.26;73.42;99214.06;5034903;28;20211;-81
2021/01/21 08:47:44;;;;;;;8.27;5.03;;;;;;;4.38;72.30;99209.50;5018208;28;20216;-82
2021/01/21 08:50:12;;;;;;;9.40;5.93;;;;;;;4.45;72.00;99203.31;5040372;28;20896;-81
2021/01/21 08:53:03;;;;;;;9.40;5.73;;;;;;;4.53;71.89;99193.66;5039852;28;20188;-80
2021/01/21 08:55:37;;;;;;;9.07;5.27;;;;;;;4.61;71.32;99206.38;5035433;28;20696;-82
2021/01/21 08:58:03;;;;;;;8.87;5.53;;;;;;;4.63;71.49;99212.38;5034501;28;20223;-81
2021/01/21 09:00:31;;;;;;;7.70;5.37;;;;;;;4.66;70.77;99207.97;5018493;28;20216;-82
2021/01/21 09:02:57;;;;;;;7.97;5.30;;;;;;;4.54;71.47;99214.28;5040063;28;20202;-81
2021/01/21 09:05:23;;;;;;;9.77;5.20;;;;;;;4.53;71.31;99204.81;5037406;28;20214;-82
2021/01/21 09:07:50;;;;;;;9.27;5.87;;;;;;;4.55;71.20;99199.63;5036767;28;20769;-82
2021/01/21 09:10:16;;;;;;;8.10;5.40;;;;;;;4.62;71.16;99205.50;5042818;28;20195;-81
2021/01/21 09:12:42;;;;;;;9.53;5.97;;;;;;;4.69;70.90;99187.22;5035606;28;20261;-82
2021/01/21 09:15:10;;;;;;;7.40;4.97;;;;;;;4.76;70.54;99202.56;5017212;28;20225;-82
2021/01/21 09:17:37;;;;;;;9.00;5.47;;;;;;;4.73;70.86;99213.81;5034535;28;20720;-82
2021/01/21 09:20:18;;;;;;;8.77;5.23;;;;;;;4.78;70.86;99211.13;5042959;28;20196;-80
2021/01/21 09:22:46;;;;;;;7.60;4.40;;;;;;;4.82;70.49;99218.78;5045546;28;20233;-80
2021/01/21 09:25:12;;;;;;;7.77;4.73;;;;;;;4.88;70.15;99217.75;5047133;28;21072;-80
2021/01/21 09:27:39;;;;;;;8.67;5.03;;;;;;;4.91;70.51;99222.84;5045111;28;20588;-81
2021/01/21 09:30:06;;;;;;;12.53;7.50;;;;;;;4.93;70.76;99223.66;5044303;28;20210;-80
2021/01/21 09:32:34;;;;;;;8.67;5.47;;;;;;;5.01;69.86;99220.88;5048510;28;20251;-81
2021/01/21 09:35:02;;;;;;;10.53;5.20;;;;;;;4.95;70.58;99239.97;5043472;28;20219;-81
2021/01/21 09:37:31;;;;;;;10.93;6.37;;;;;;;4.95;69.95;99250.28;5037158;28;20228;-81
2021/01/21 09:39:57;;;;;;;11.93;7.07;;;;;;;4.96;70.47;99244.25;5031157;28;20207;-80
2021/01/21 09:42:23;;;;;;;11.27;6.43;;;;;;;4.93;70.31;99237.41;5037096;28;20556;-81
2021/01/21 09:44:50;;;;;;;7.70;5.60;;;;;;;4.97;70.26;99243.34;5028584;28;20212;-81
2021/01/21 09:47:16;;;;;;;9.37;6.07;;;;;;;5.11;69.47;99235.25;5012642;28;20583;-81
2021/01/21 09:49:42;;;;;;;10.73;5.70;;;;;;;5.16;70.03;99235.97;5028081;28;20693;-80
2021/01/21 09:52:08;;;;;;;9.00;5.20;;;;;;;5.25;69.30;99225.41;5032778;28;20228;-81
2021/01/21 09:54:35;;;;;;;7.50;4.53;;;;;;;5.25;69.35;99229.72;5033252;28;20216;-81
2021/01/21 09:57:02;;;;;;;7.80;4.70;;;;;;;5.21;69.67;99235.88;5027427;28;20215;-81
2021/01/21 09:59:27;;;;;;;6.33;4.43;;;;;;;5.18;69.11;99239.38;5030006;28;20594;-81
2021/01/21 10:01:53;;;;;;;8.00;4.17;;;;;;;5.09;69.80;99231.88;5026028;28;20206;-80
2021/01/21 10:04:19;;;;;;;6.17;3.80;;;;;;;5.10;69.38;99238.72;5029264;28;20204;-81
2021/01/21 10:06:45;;;;;;;7.43;4.27;;;;;;;5.07;69.78;99246.56;5026829;28;20489;-81
2021/01/21 10:09:11;;;;;;;6.97;3.97;;;;;;;5.11;69.29;99232.66;5036854;28;20217;-81
2021/01/21 10:11:36;;;;;;;7.90;4.43;;;;;;;5.16;69.28;99245.47;5026705;28;20200;-81
2021/01/21 10:14:03;;;;;;;5.13;3.93;;;;;;;5.26;69.50;99241.78;5034456;28;20199;-81
2021/01/21 10:16:29;;;;;;;7.27;4.33;;;;;;;5.39;69.22;99245.72;5026429;28;20208;-81
2021/01/21 10:18:56;;;;;;;6.20;3.83;;;;;;;5.53;68.18;99231.56;5028532;28;20215;-81
2021/01/21 10:21:23;;;;;;;5.97;4.10;;;;;;;5.71;67.67;99235.38;5030730;28;20692;-81
2021/01/21 10:23:48;;;;;;;6.43;4.07;;;;;;;5.76;68.43;99228.34;5024551;28;20755;-81
2021/01/21 10:26:14;;;;;;;7.03;4.30;;;;;;;5.97;67.52;99242.41;5028794;28;20196;-82
2021/01/21 10:28:41;;;;;;;7.67;4.17;;;;;;;6.04;67.63;99244.75;5025997;28;20224;-81
2021/01/21 10:31:08;;;;;;;6.90;4.80;;;;;;;6.15;66.72;99243.59;5030272;28;20196;-81
2021/01/21 10:33:34;;;;;;;7.00;4.27;;;;;;;6.30;65.89;99250.91;5028992;28;20199;-81
2021/01/21 10:36:00;;;;;;;5.87;4.13;;;;;;;6.41;65.14;99245.41;5033492;28;20218;-81
2021/01/21 10:38:26;;;;;;;5.53;4.20;;;;;;;6.42;65.97;99227.25;5026096;28;20623;-81
2021/01/21 10:40:51;;;;;;;6.77;4.07;;;;;;;6.38;65.58;99233.38;5032931;28;20203;-81
2021/01/21 10:43:17;;;;;;;5.47;4.23;;;;;;;6.32;65.93;99231.00;5026442;28;20212;-81
2021/01/21 10:45:43;;;;;;;6.70;4.47;;;;;;;6.26;65.10;99228.59;5031155;28;20203;-81
2021/01/21 10:48:10;;;;;;;6.60;4.40;;;;;;;6.16;65.81;99242.72;5032524;28;20273;-81
2021/01/21 10:50:36;;;;;;;5.03;3.83;;;;;;;6.09;66.49;99239.47;5022966;28;20215;-81
2021/01/21 10:53:02;;;;;;;7.93;4.50;;;;;;;6.20;65.55;99229.63;5033071;28;20204;-81
2021/01/21 10:55:28;;;;;;;6.80;5.07;;;;;;;6.36;66.18;99234.34;5008683;28;20239;-80
2021/01/21 10:57:54;;;;;;;6.20;4.40;;;;;;;6.54;65.69;99230.31;5035884;28;20590;-81
2021/01/21 11:00:21;;;;;;;5.73;4.40;;;;;;;6.64;65.36;99237.75;5024885;28;20204;-81
2021/01/21 11:02:48;;;;;;;6.83;4.33;;;;;;;6.69;65.82;99216.03;5035546;28;20203;-81
2021/01/21 11:05:15;;;;;;;7.90;3.70;;;;;;;6.74;64.87;99227.94;5028079;28;20215;-81
2021/01/21 11:07:41;;;;;;;5.53;4.20;;;;;;;6.74;64.72;99230.53;5033324;28;20239;-81
2021/01/21 11:10:08;;;;;;;6.17;4.30;;;;;;;6.70;65.29;99221.19;5026847;28;20668;-81
2021/01/21 11:12:35;;;;;;;6.17;4.53;;;;;;;6.69;64.71;99222.06;5034218;28;20195;-81
2021/01/21 11:15:01;;;;;;;8.27;4.53;;;;;;;6.71;65.11;99220.25;5030898;28;20224;-82
2021/01/21 11:17:26;;;;;;;6.13;4.60;;;;;;;6.72;64.96;99219.38;5031130;28;20235;-80
2021/01/21 11:19:52;;;;;;;7.53;5.07;;;;;;;6.73;65.32;99207.28;5025576;28;21761;-81
2021/01/21 11:22:19;;;;;;;6.50;4.77;;;;;;;6.72;65.51;99211.59;5030677;28;20261;-81
2021/01/21 11:24:45;;;;;;;6.67;4.50;;;;;;;6.76;65.01;99205.41;5029916;28;20224;-81
2021/01/21 11:27:11;;;;;;;7.17;4.57;;;;;;;6.80;64.88;99212.19;4997108;28;20224;-81
2021/01/21 11:29:36;;;;;;;7.47;5.00;;;;;;;6.80;64.83;99206.16;5025119;28;20235;-81
2021/01/21 11:32:02;;;;;;;7.43;4.30;;;;;;;6.84;64.07;99202.56;5020229;28;20222;-82
2021/01/21 11:34:28;;;;;;;6.53;4.10;;;;;;;6.87;64.23;99210.25;5025757;28;20212;-81
2021/01/21 11:36:54;;;;;;;10.17;6.47;;;;;;;6.90;65.04;99194.59;5023537;28;20494;-81
2021/01/21 11:39:21;;;;;;;7.83;4.40;;;;;;;6.99;64.25;99209.81;5035305;28;20204;-81
2021/01/21 11:41:46;;;;;;;13.73;7.00;;;;;;;7.04;64.17;99204.50;5030174;28;20288;-81
2021/01/21 11:44:12;;;;;;;7.20;5.07;;;;;;;7.06;63.85;99215.66;5027286;28;20751;-81
2021/01/21 11:46:38;;;;;;;9.13;5.10;;;;;;;7.10;63.79;99198.25;5028729;28;20214;-80
2021/01/21 11:49:04;;;;;;;6.50;4.57;;;;;;;7.13;63.30;99211.13;5025372;28;20224;-84
2021/01/21 11:51:30;;;;;;;7.73;5.07;;;;;;;7.12;63.33;99207.66;5035286;28;20208;-83
2021/01/21 11:53:56;;;;;;;6.33;4.47;;;;;;;7.12;63.08;99214.59;5016002;28;20562;-82
2021/01/21 11:56:23;;;;;;;8.27;5.53;;;;;;;7.13;63.53;99203.34;5034977;28;20243;-83